sensor_id;sensor_type;location;lat;lon;timestamp;temperature;humidity
20512;DHT22;10414;52.074;5.126;2023-07-31T00:00:30;16.90;99.90
20512;DHT22;10414;52.074;5.126;2023-07-31T00:02:59;17.10;99.90
20512;DHT22;10414;52.074;5.126;2023-07-31T00:05:26;17.10;99.90
20512;DHT22;10414;52.074;5.126;2023-07-31T00:07:53;17.20;99.90
20512;DHT22;10414;52.074;5.126;2023-07-31T00:10:21;17.10;99.90
20512;DHT22;10414;52.074;5.126;2023-07-31T00:12:51;17.20;99.90
20512;DHT22;10414;52.074;5.126;2023-07-31T00:15:18;17.20;99.90
20512;DHT22;10414;52.074;5.126;2023-07-31T00:17:45;17.30;99.90
20512;DHT22;10414;52.074;5.126;2023-07-31T00:20:12;17.30;99.90
20512;DHT22;10414;52.074;5.126;2023-07-31T00:22:39;17.40;99.90
20512;DHT22;10414;52.074;5.126;2023-07-31T00:25:06;17.40;99.90
20512;DHT22;10414;52.074;5.126;2023-07-31T00:27:36;17.50;99.90
20512;DHT22;10414;52.074;5.126;2023-07-31T00:30:03;17.50;99.90
20512;DHT22;10414;52.074;5.126;2023-07-31T00:32:33;17.50;99.90
20512;DHT22;10414;52.074;5.126;2023-07-31T00:35:00;17.50;99.90
20512;DHT22;10414;52.074;5.126;2023-07-31T00:37:27;17.50;99.90
20512;DHT22;10414;52.074;5.126;2023-07-31T00:39:54;17.50;99.90
20512;DHT22;10414;52.074;5.126;2023-07-31T00:42:23;17.60;99.90
20512;DHT22;10414;52.074;5.126;2023-07-31T00:44:52;17.50;99.90
20512;DHT22;10414;52.074;5.126;2023-07-31T00:47:19;17.50;99.90
20512;DHT22;10414;52.074;5.126;2023-07-31T00:49:46;17.50;99.90
20512;DHT22;10414;52.074;5.126;2023-07-31T00:52:13;17.60;99.90
20512;DHT22;10414;52.074;5.126;2023-07-31T00:54:39;17.50;99.90
20512;DHT22;10414;52.074;5.126;2023-07-31T00:57:06;17.60;99.90
20512;DHT22;10414;52.074;5.126;2023-07-31T00:59:34;17.60;99.90
20512;DHT22;10414;52.074;5.126;2023-07-31T01:02:03;17.50;99.90
20512;DHT22;10414;52.074;5.126;2023-07-31T01:04:30;17.50;99.90
20512;DHT22;10414;52.074;5.126;2023-07-31T01:07:05;17.50;99.90
20512;DHT22;10414;52.074;5.126;2023-07-31T01:09:40;17.50;99.90
20512;DHT22;10414;52.074;5.126;2023-07-31T01:12:14;17.50;99.90
20512;DHT22;10414;52.074;5.126;2023-07-31T01:14:42;17.50;99.90
20512;DHT22;10414;52.074;5.126;2023-07-31T01:17:18;17.50;99.90
20512;DHT22;10414;52.074;5.126;2023-07-31T01:19:45;17.50;99.90
20512;DHT22;10414;52.074;5.126;2023-07-31T01:22:29;17.40;99.90
20512;DHT22;10414;52.074;5.126;2023-07-31T01:25:09;17.50;99.90
20512;DHT22;10414;52.074;5.126;2023-07-31T01:27:48;17.40;99.90
20512;DHT22;10414;52.074;5.126;2023-07-31T01:30:24;17.50;99.90
20512;DHT22;10414;52.074;5.126;2023-07-31T01:32:53;17.50;99.90
20512;DHT22;10414;52.074;5.126;2023-07-31T01:35:21;17.50;99.90
20512;DHT22;10414;52.074;5.126;2023-07-31T01:37:52;17.50;99.90
20512;DHT22;10414;52.074;5.126;2023-07-31T01:40:19;17.60;99.90
20512;DHT22;10414;52.074;5.126;2023-07-31T01:42:47;17.50;99.90
20512;DHT22;10414;52.074;5.126;2023-07-31T01:45:15;17.50;99.90
20512;DHT22;10414;52.074;5.126;2023-07-31T01:47:41;17.50;99.90
20512;DHT22;10414;52.074;5.126;2023-07-31T01:50:09;17.40;99.90
20512;DHT22;10414;52.074;5.126;2023-07-31T01:52:36;17.30;99.90
20512;DHT22;10414;52.074;5.126;2023-07-31T01:55:03;17.30;99.90
20512;DHT22;10414;52.074;5.126;2023-07-31T01:57:32;17.30;99.90
20512;DHT22;10414;52.074;5.126;2023-07-31T02:00:01;17.20;99.90
20512;DHT22;10414;52.074;5.126;2023-07-31T02:02:30;17.20;99.90
20512;DHT22;10414;52.074;5.126;2023-07-31T02:04:57;17.30;99.90
20512;DHT22;10414;52.074;5.126;2023-07-31T02:07:24;17.30;99.90
20512;DHT22;10414;52.074;5.126;2023-07-31T02:09:51;17.30;99.90
20512;DHT22;10414;52.074;5.126;2023-07-31T02:12:20;17.20;99.90
20512;DHT22;10414;52.074;5.126;2023-07-31T02:14:47;17.20;99.90
20512;DHT22;10414;52.074;5.126;2023-07-31T02:17:15;17.20;99.90
20512;DHT22;10414;52.074;5.126;2023-07-31T02:19:42;17.20;99.90
20512;DHT22;10414;52.074;5.126;2023-07-31T02:22:09;17.30;99.90
20512;DHT22;10414;52.074;5.126;2023-07-31T02:24:36;17.20;99.90
20512;DHT22;10414;52.074;5.126;2023-07-31T02:27:04;17.20;99.90
20512;DHT22;10414;52.074;5.126;2023-07-31T02:29:31;17.30;99.90
20512;DHT22;10414;52.074;5.126;2023-07-31T02:31:57;17.30;99.90
20512;DHT22;10414;52.074;5.126;2023-07-31T02:34:26;17.30;99.90
20512;DHT22;10414;52.074;5.126;2023-07-31T02:36:53;17.30;99.90
20512;DHT22;10414;52.074;5.126;2023-07-31T02:39:19;17.40;99.90
20512;DHT22;10414;52.074;5.126;2023-07-31T02:41:47;17.40;99.90
20512;DHT22;10414;52.074;5.126;2023-07-31T02:44:14;17.40;99.90
20512;DHT22;10414;52.074;5.126;2023-07-31T02:46:40;17.40;99.90
20512;DHT22;10414;52.074;5.126;2023-07-31T02:49:07;17.50;99.90
20512;DHT22;10414;52.074;5.126;2023-07-31T02:51:37;17.40;99.90
20512;DHT22;10414;52.074;5.126;2023-07-31T02:54:03;17.50;99.90
20512;DHT22;10414;52.074;5.126;2023-07-31T02:56:30;17.40;99.90
20512;DHT22;10414;52.074;5.126;2023-07-31T02:58:59;17.40;99.90
20512;DHT22;10414;52.074;5.126;2023-07-31T03:01:32;17.40;99.90
20512;DHT22;10414;52.074;5.126;2023-07-31T03:03:59;17.40;99.90
20512;DHT22;10414;52.074;5.126;2023-07-31T03:06:26;17.40;99.90
20512;DHT22;10414;52.074;5.126;2023-07-31T03:08:55;17.40;99.90
20512;DHT22;10414;52.074;5.126;2023-07-31T03:11:24;17.50;99.90
20512;DHT22;10414;52.074;5.126;2023-07-31T03:13:51;17.40;99.90
20512;DHT22;10414;52.074;5.126;2023-07-31T03:16:17;17.30;99.90
20512;DHT22;10414;52.074;5.126;2023-07-31T03:18:46;17.40;99.90
20512;DHT22;10414;52.074;5.126;2023-07-31T03:21:16;17.40;99.90
20512;DHT22;10414;52.074;5.126;2023-07-31T03:23:43;17.40;99.90
20512;DHT22;10414;52.074;5.126;2023-07-31T03:26:13;17.30;99.90
20512;DHT22;10414;52.074;5.126;2023-07-31T03:28:40;17.30;99.90
20512;DHT22;10414;52.074;5.126;2023-07-31T03:31:07;17.30;99.90
20512;DHT22;10414;52.074;5.126;2023-07-31T03:33:43;17.30;99.90
20512;DHT22;10414;52.074;5.126;2023-07-31T03:36:10;17.40;99.90
20512;DHT22;10414;52.074;5.126;2023-07-31T03:38:39;17.40;99.90
20512;DHT22;10414;52.074;5.126;2023-07-31T03:41:09;17.30;99.90
20512;DHT22;10414;52.074;5.126;2023-07-31T03:43:38;17.40;99.90
20512;DHT22;10414;52.074;5.126;2023-07-31T03:46:05;17.30;99.90
20512;DHT22;10414;52.074;5.126;2023-07-31T03:48:32;17.40;99.90
20512;DHT22;10414;52.074;5.126;2023-07-31T03:50:59;17.40;99.90
20512;DHT22;10414;52.074;5.126;2023-07-31T03:53:26;17.40;99.90
20512;DHT22;10414;52.074;5.126;2023-07-31T03:55:52;17.30;99.90
20512;DHT22;10414;52.074;5.126;2023-07-31T03:58:19;17.40;99.90
20512;DHT22;10414;52.074;5.126;2023-07-31T04:00:47;17.30;99.90
20512;DHT22;10414;52.074;5.126;2023-07-31T04:03:14;17.40;99.90
20512;DHT22;10414;52.074;5.126;2023-07-31T04:05:42;17.40;99.90
20512;DHT22;10414;52.074;5.126;2023-07-31T04:08:09;17.30;99.90
20512;DHT22;10414;52.074;5.126;2023-07-31T04:10:35;17.30;99.90
20512;DHT22;10414;52.074;5.126;2023-07-31T04:13:02;17.30;99.90
20512;DHT22;10414;52.074;5.126;2023-07-31T04:15:29;17.30;99.90
20512;DHT22;10414;52.074;5.126;2023-07-31T04:17:58;17.20;99.90
20512;DHT22;10414;52.074;5.126;2023-07-31T04:20:25;17.10;99.90
20512;DHT22;10414;52.074;5.126;2023-07-31T04:22:51;17.00;99.90
20512;DHT22;10414;52.074;5.126;2023-07-31T04:25:19;17.00;99.90
20512;DHT22;10414;52.074;5.126;2023-07-31T04:27:46;17.00;99.90
20512;DHT22;10414;52.074;5.126;2023-07-31T04:30:13;16.90;99.90
20512;DHT22;10414;52.074;5.126;2023-07-31T04:32:43;16.90;99.90
20512;DHT22;10414;52.074;5.126;2023-07-31T04:35:11;16.80;99.90
20512;DHT22;10414;52.074;5.126;2023-07-31T04:37:38;16.90;99.90
20512;DHT22;10414;52.074;5.126;2023-07-31T04:40:06;16.90;99.90
20512;DHT22;10414;52.074;5.126;2023-07-31T04:42:33;17.00;99.90
20512;DHT22;10414;52.074;5.126;2023-07-31T04:45:00;17.00;99.90
20512;DHT22;10414;52.074;5.126;2023-07-31T04:47:30;16.90;99.90
20512;DHT22;10414;52.074;5.126;2023-07-31T04:49:56;16.90;99.90
20512;DHT22;10414;52.074;5.126;2023-07-31T04:52:25;16.80;99.90
20512;DHT22;10414;52.074;5.126;2023-07-31T04:54:52;16.90;99.90
20512;DHT22;10414;52.074;5.126;2023-07-31T04:57:18;16.90;99.90
20512;DHT22;10414;52.074;5.126;2023-07-31T04:59:51;16.80;99.90
20512;DHT22;10414;52.074;5.126;2023-07-31T05:02:17;16.80;99.90
20512;DHT22;10414;52.074;5.126;2023-07-31T05:04:47;16.70;99.90
20512;DHT22;10414;52.074;5.126;2023-07-31T05:07:15;16.70;99.90
20512;DHT22;10414;52.074;5.126;2023-07-31T05:09:44;16.70;99.90
20512;DHT22;10414;52.074;5.126;2023-07-31T05:12:10;16.70;99.90
20512;DHT22;10414;52.074;5.126;2023-07-31T05:14:37;16.70;99.90
20512;DHT22;10414;52.074;5.126;2023-07-31T05:17:04;16.60;99.90
20512;DHT22;10414;52.074;5.126;2023-07-31T05:19:31;16.50;99.90
20512;DHT22;10414;52.074;5.126;2023-07-31T05:21:58;16.50;99.90
20512;DHT22;10414;52.074;5.126;2023-07-31T05:24:25;16.50;99.90
20512;DHT22;10414;52.074;5.126;2023-07-31T05:26:53;16.60;99.90
20512;DHT22;10414;52.074;5.126;2023-07-31T05:29:20;16.60;99.90
20512;DHT22;10414;52.074;5.126;2023-07-31T05:31:47;16.70;99.90
20512;DHT22;10414;52.074;5.126;2023-07-31T05:34:14;16.60;99.90
20512;DHT22;10414;52.074;5.126;2023-07-31T05:36:41;16.60;99.90
20512;DHT22;10414;52.074;5.126;2023-07-31T05:39:16;16.60;99.90
20512;DHT22;10414;52.074;5.126;2023-07-31T05:41:45;16.70;99.90
20512;DHT22;10414;52.074;5.126;2023-07-31T05:44:13;16.70;99.90
20512;DHT22;10414;52.074;5.126;2023-07-31T05:46:40;16.60;99.90
20512;DHT22;10414;52.074;5.126;2023-07-31T05:49:07;16.60;99.90
20512;DHT22;10414;52.074;5.126;2023-07-31T05:51:34;16.70;99.90
20512;DHT22;10414;52.074;5.126;2023-07-31T05:54:01;16.70;99.90
20512;DHT22;10414;52.074;5.126;2023-07-31T05:56:28;16.80;99.90
20512;DHT22;10414;52.074;5.126;2023-07-31T05:58:55;16.70;99.90
20512;DHT22;10414;52.074;5.126;2023-07-31T06:01:24;16.80;99.90
20512;DHT22;10414;52.074;5.126;2023-07-31T06:03:51;16.80;99.90
20512;DHT22;10414;52.074;5.126;2023-07-31T06:06:18;16.80;99.90
20512;DHT22;10414;52.074;5.126;2023-07-31T06:08:45;16.80;99.90
20512;DHT22;10414;52.074;5.126;2023-07-31T06:11:12;16.80;99.90
20512;DHT22;10414;52.074;5.126;2023-07-31T06:13:39;16.90;99.90
20512;DHT22;10414;52.074;5.126;2023-07-31T06:16:06;17.00;99.90
20512;DHT22;10414;52.074;5.126;2023-07-31T06:18:34;17.10;99.90
20512;DHT22;10414;52.074;5.126;2023-07-31T06:21:01;17.00;99.90
20512;DHT22;10414;52.074;5.126;2023-07-31T06:23:28;16.90;99.90
20512;DHT22;10414;52.074;5.126;2023-07-31T06:25:55;17.00;99.90
20512;DHT22;10414;52.074;5.126;2023-07-31T06:28:30;17.20;99.90
20512;DHT22;10414;52.074;5.126;2023-07-31T06:30:57;17.20;99.90
20512;DHT22;10414;52.074;5.126;2023-07-31T06:33:27;17.30;99.90
20512;DHT22;10414;52.074;5.126;2023-07-31T06:35:57;17.20;99.90
20512;DHT22;10414;52.074;5.126;2023-07-31T06:38:25;17.10;99.90
20512;DHT22;10414;52.074;5.126;2023-07-31T06:40:53;17.10;99.90
20512;DHT22;10414;52.074;5.126;2023-07-31T06:43:20;17.10;99.90
20512;DHT22;10414;52.074;5.126;2023-07-31T06:45:49;17.10;99.90
20512;DHT22;10414;52.074;5.126;2023-07-31T06:48:16;17.20;99.90
20512;DHT22;10414;52.074;5.126;2023-07-31T06:50:43;17.20;99.90
20512;DHT22;10414;52.074;5.126;2023-07-31T06:53:11;17.30;99.90
20512;DHT22;10414;52.074;5.126;2023-07-31T06:55:38;17.30;99.90
20512;DHT22;10414;52.074;5.126;2023-07-31T06:58:05;17.50;99.90
20512;DHT22;10414;52.074;5.126;2023-07-31T07:00:35;17.40;99.90
20512;DHT22;10414;52.074;5.126;2023-07-31T07:03:04;17.50;99.90
20512;DHT22;10414;52.074;5.126;2023-07-31T07:05:31;17.60;99.90
20512;DHT22;10414;52.074;5.126;2023-07-31T07:07:58;17.60;99.90
20512;DHT22;10414;52.074;5.126;2023-07-31T07:10:28;17.60;99.90
20512;DHT22;10414;52.074;5.126;2023-07-31T07:12:55;17.70;99.90
20512;DHT22;10414;52.074;5.126;2023-07-31T07:15:22;17.50;99.90
20512;DHT22;10414;52.074;5.126;2023-07-31T07:17:49;17.60;99.90
20512;DHT22;10414;52.074;5.126;2023-07-31T07:20:16;17.70;99.90
20512;DHT22;10414;52.074;5.126;2023-07-31T07:22:44;17.60;99.90
20512;DHT22;10414;52.074;5.126;2023-07-31T07:25:11;17.50;99.90
20512;DHT22;10414;52.074;5.126;2023-07-31T07:27:40;17.50;99.90
20512;DHT22;10414;52.074;5.126;2023-07-31T07:30:07;17.50;99.90
20512;DHT22;10414;52.074;5.126;2023-07-31T07:32:36;17.50;99.90
20512;DHT22;10414;52.074;5.126;2023-07-31T07:35:04;17.60;99.90
20512;DHT22;10414;52.074;5.126;2023-07-31T07:37:33;17.60;99.90
20512;DHT22;10414;52.074;5.126;2023-07-31T07:40:03;17.80;99.90
20512;DHT22;10414;52.074;5.126;2023-07-31T07:42:30;17.90;99.90
20512;DHT22;10414;52.074;5.126;2023-07-31T07:44:58;18.10;99.90
20512;DHT22;10414;52.074;5.126;2023-07-31T07:47:25;18.20;99.90
20512;DHT22;10414;52.074;5.126;2023-07-31T07:49:52;18.20;99.90
20512;DHT22;10414;52.074;5.126;2023-07-31T07:52:21;18.20;99.90
20512;DHT22;10414;52.074;5.126;2023-07-31T07:54:51;18.10;99.90
20512;DHT22;10414;52.074;5.126;2023-07-31T07:57:18;18.00;99.90
20512;DHT22;10414;52.074;5.126;2023-07-31T07:59:45;18.00;99.90
20512;DHT22;10414;52.074;5.126;2023-07-31T08:02:13;18.00;99.90
20512;DHT22;10414;52.074;5.126;2023-07-31T08:04:40;18.00;99.90
20512;DHT22;10414;52.074;5.126;2023-07-31T08:07:10;18.00;99.90
20512;DHT22;10414;52.074;5.126;2023-07-31T08:09:40;18.00;99.90
20512;DHT22;10414;52.074;5.126;2023-07-31T08:12:10;18.10;99.90
20512;DHT22;10414;52.074;5.126;2023-07-31T08:14:37;18.40;99.90
20512;DHT22;10414;52.074;5.126;2023-07-31T08:17:04;18.60;99.90
20512;DHT22;10414;52.074;5.126;2023-07-31T08:19:32;18.60;99.90
20512;DHT22;10414;52.074;5.126;2023-07-31T08:22:03;18.80;99.90
20512;DHT22;10414;52.074;5.126;2023-07-31T08:24:30;18.90;99.90
20512;DHT22;10414;52.074;5.126;2023-07-31T08:26:57;19.00;99.90
20512;DHT22;10414;52.074;5.126;2023-07-31T08:29:24;19.00;99.90
20512;DHT22;10414;52.074;5.126;2023-07-31T08:31:54;18.80;99.90
20512;DHT22;10414;52.074;5.126;2023-07-31T08:34:21;19.00;99.90
20512;DHT22;10414;52.074;5.126;2023-07-31T08:36:49;19.10;99.90
20512;DHT22;10414;52.074;5.126;2023-07-31T08:39:16;19.00;99.90
20512;DHT22;10414;52.074;5.126;2023-07-31T08:41:43;19.10;99.90
20512;DHT22;10414;52.074;5.126;2023-07-31T08:44:12;19.10;99.90
20512;DHT22;10414;52.074;5.126;2023-07-31T08:46:40;19.10;99.90
20512;DHT22;10414;52.074;5.126;2023-07-31T08:49:09;19.10;99.90
20512;DHT22;10414;52.074;5.126;2023-07-31T08:51:37;19.00;99.90
20512;DHT22;10414;52.074;5.126;2023-07-31T08:54:05;18.70;99.90
20512;DHT22;10414;52.074;5.126;2023-07-31T08:56:32;18.60;99.90
20512;DHT22;10414;52.074;5.126;2023-07-31T08:59:02;18.50;99.90
20512;DHT22;10414;52.074;5.126;2023-07-31T09:01:30;18.60;99.90
20512;DHT22;10414;52.074;5.126;2023-07-31T09:03:59;18.70;99.90
20512;DHT22;10414;52.074;5.126;2023-07-31T09:06:30;18.70;99.90
20512;DHT22;10414;52.074;5.126;2023-07-31T09:08:57;18.70;99.90
20512;DHT22;10414;52.074;5.126;2023-07-31T09:11:26;18.90;99.90
20512;DHT22;10414;52.074;5.126;2023-07-31T09:13:57;19.20;99.90
20512;DHT22;10414;52.074;5.126;2023-07-31T09:16:28;19.90;99.90
20512;DHT22;10414;52.074;5.126;2023-07-31T09:18:57;20.00;99.90
20512;DHT22;10414;52.074;5.126;2023-07-31T09:21:27;19.90;99.90
20512;DHT22;10414;52.074;5.126;2023-07-31T09:23:54;19.90;99.90
20512;DHT22;10414;52.074;5.126;2023-07-31T09:26:33;19.50;99.90
20512;DHT22;10414;52.074;5.126;2023-07-31T09:29:01;19.40;99.90
20512;DHT22;10414;52.074;5.126;2023-07-31T09:31:40;19.30;99.90
20512;DHT22;10414;52.074;5.126;2023-07-31T09:34:07;19.30;99.90
20512;DHT22;10414;52.074;5.126;2023-07-31T09:36:40;19.40;99.90
20512;DHT22;10414;52.074;5.126;2023-07-31T09:39:09;19.70;99.90
20512;DHT22;10414;52.074;5.126;2023-07-31T09:41:38;19.90;99.90
20512;DHT22;10414;52.074;5.126;2023-07-31T09:44:08;20.00;99.90
20512;DHT22;10414;52.074;5.126;2023-07-31T09:46:35;19.90;99.90
20512;DHT22;10414;52.074;5.126;2023-07-31T09:49:04;19.70;99.90
20512;DHT22;10414;52.074;5.126;2023-07-31T09:51:34;19.30;99.90
20512;DHT22;10414;52.074;5.126;2023-07-31T09:54:08;19.40;99.90
20512;DHT22;10414;52.074;5.126;2023-07-31T09:56:37;19.40;99.90
20512;DHT22;10414;52.074;5.126;2023-07-31T09:59:05;19.40;99.90
20512;DHT22;10414;52.074;5.126;2023-07-31T10:01:33;19.50;99.90
20512;DHT22;10414;52.074;5.126;2023-07-31T10:04:04;19.50;99.90
20512;DHT22;10414;52.074;5.126;2023-07-31T10:06:33;19.40;99.90
20512;DHT22;10414;52.074;5.126;2023-07-31T10:09:01;19.50;99.90
20512;DHT22;10414;52.074;5.126;2023-07-31T10:11:30;19.30;99.90
20512;DHT22;10414;52.074;5.126;2023-07-31T10:13:58;19.40;99.90
20512;DHT22;10414;52.074;5.126;2023-07-31T10:16:26;19.30;99.90
20512;DHT22;10414;52.074;5.126;2023-07-31T10:18:54;19.10;99.90
20512;DHT22;10414;52.074;5.126;2023-07-31T10:21:21;19.20;99.90
20512;DHT22;10414;52.074;5.126;2023-07-31T10:23:48;19.10;99.90
20512;DHT22;10414;52.074;5.126;2023-07-31T10:26:17;19.10;99.90
20512;DHT22;10414;52.074;5.126;2023-07-31T10:28:48;19.20;99.90
20512;DHT22;10414;52.074;5.126;2023-07-31T10:31:21;19.30;99.90
20512;DHT22;10414;52.074;5.126;2023-07-31T10:33:49;19.30;99.90
20512;DHT22;10414;52.074;5.126;2023-07-31T10:36:18;19.40;99.90
20512;DHT22;10414;52.074;5.126;2023-07-31T10:38:45;19.50;99.90
20512;DHT22;10414;52.074;5.126;2023-07-31T10:41:13;19.50;99.90
20512;DHT22;10414;52.074;5.126;2023-07-31T10:43:40;19.40;99.90
20512;DHT22;10414;52.074;5.126;2023-07-31T10:46:09;19.60;99.90
20512;DHT22;10414;52.074;5.126;2023-07-31T10:48:40;19.70;99.90
20512;DHT22;10414;52.074;5.126;2023-07-31T10:51:08;20.00;99.90
20512;DHT22;10414;52.074;5.126;2023-07-31T10:53:36;19.90;99.90
20512;DHT22;10414;52.074;5.126;2023-07-31T10:56:04;19.80;99.90
20512;DHT22;10414;52.074;5.126;2023-07-31T10:58:33;19.30;99.90
20512;DHT22;10414;52.074;5.126;2023-07-31T11:01:01;19.30;99.90
20512;DHT22;10414;52.074;5.126;2023-07-31T11:03:43;19.30;99.90
20512;DHT22;10414;52.074;5.126;2023-07-31T11:06:13;19.50;99.90
20512;DHT22;10414;52.074;5.126;2023-07-31T11:08:44;19.40;99.90
20512;DHT22;10414;52.074;5.126;2023-07-31T11:11:14;19.30;99.90
20512;DHT22;10414;52.074;5.126;2023-07-31T11:13:44;19.20;99.90
20512;DHT22;10414;52.074;5.126;2023-07-31T11:16:13;19.20;99.90
20512;DHT22;10414;52.074;5.126;2023-07-31T11:18:42;19.30;99.90
20512;DHT22;10414;52.074;5.126;2023-07-31T11:21:13;19.50;99.90
20512;DHT22;10414;52.074;5.126;2023-07-31T11:23:40;19.50;99.90
20512;DHT22;10414;52.074;5.126;2023-07-31T11:26:07;19.40;99.90
20512;DHT22;10414;52.074;5.126;2023-07-31T11:28:35;19.40;99.90
20512;DHT22;10414;52.074;5.126;2023-07-31T11:31:09;19.50;99.90
20512;DHT22;10414;52.074;5.126;2023-07-31T11:33:38;19.70;99.90
20512;DHT22;10414;52.074;5.126;2023-07-31T11:36:13;19.90;99.90
20512;DHT22;10414;52.074;5.126;2023-07-31T11:38:40;19.80;99.90
20512;DHT22;10414;52.074;5.126;2023-07-31T11:41:07;19.80;99.90
20512;DHT22;10414;52.074;5.126;2023-07-31T11:43:34;19.70;99.90
20512;DHT22;10414;52.074;5.126;2023-07-31T11:46:02;19.60;99.90
20512;DHT22;10414;52.074;5.126;2023-07-31T11:48:31;19.50;99.90
20512;DHT22;10414;52.074;5.126;2023-07-31T11:51:00;19.70;99.90
20512;DHT22;10414;52.074;5.126;2023-07-31T11:53:31;19.70;99.90
20512;DHT22;10414;52.074;5.126;2023-07-31T11:55:59;19.60;99.90
20512;DHT22;10414;52.074;5.126;2023-07-31T11:58:29;19.60;99.90
20512;DHT22;10414;52.074;5.126;2023-07-31T12:00:58;19.30;99.90
20512;DHT22;10414;52.074;5.126;2023-07-31T12:03:25;19.60;99.90
20512;DHT22;10414;52.074;5.126;2023-07-31T12:05:53;19.70;99.90
20512;DHT22;10414;52.074;5.126;2023-07-31T12:08:21;19.70;99.90
20512;DHT22;10414;52.074;5.126;2023-07-31T12:10:50;19.70;99.90
20512;DHT22;10414;52.074;5.126;2023-07-31T12:13:25;19.60;99.90
20512;DHT22;10414;52.074;5.126;2023-07-31T12:15:55;19.70;99.90
20512;DHT22;10414;52.074;5.126;2023-07-31T12:18:23;19.60;99.90
20512;DHT22;10414;52.074;5.126;2023-07-31T12:21:00;19.70;99.90
20512;DHT22;10414;52.074;5.126;2023-07-31T12:23:29;19.50;99.90
20512;DHT22;10414;52.074;5.126;2023-07-31T12:26:05;19.70;99.90
20512;DHT22;10414;52.074;5.126;2023-07-31T12:28:35;19.90;99.90
20512;DHT22;10414;52.074;5.126;2023-07-31T12:31:04;19.80;99.90
20512;DHT22;10414;52.074;5.126;2023-07-31T12:33:35;19.90;99.90
20512;DHT22;10414;52.074;5.126;2023-07-31T12:36:03;19.90;99.90
20512;DHT22;10414;52.074;5.126;2023-07-31T12:38:30;19.90;99.90
20512;DHT22;10414;52.074;5.126;2023-07-31T12:40:57;20.00;99.90
20512;DHT22;10414;52.074;5.126;2023-07-31T12:43:26;20.00;99.90
20512;DHT22;10414;52.074;5.126;2023-07-31T12:45:54;19.90;99.90
20512;DHT22;10414;52.074;5.126;2023-07-31T12:48:22;19.90;99.90
20512;DHT22;10414;52.074;5.126;2023-07-31T12:50:49;20.00;99.90
20512;DHT22;10414;52.074;5.126;2023-07-31T12:53:16;19.90;99.90
20512;DHT22;10414;52.074;5.126;2023-07-31T12:55:43;20.00;99.90
20512;DHT22;10414;52.074;5.126;2023-07-31T12:58:10;19.70;99.90
20512;DHT22;10414;52.074;5.126;2023-07-31T13:00:38;19.50;99.90
20512;DHT22;10414;52.074;5.126;2023-07-31T13:03:08;19.70;99.90
20512;DHT22;10414;52.074;5.126;2023-07-31T13:05:35;20.10;99.90
20512;DHT22;10414;52.074;5.126;2023-07-31T13:08:02;20.70;99.90
20512;DHT22;10414;52.074;5.126;2023-07-31T13:10:29;20.70;99.90
20512;DHT22;10414;52.074;5.126;2023-07-31T13:12:56;20.60;99.90
20512;DHT22;10414;52.074;5.126;2023-07-31T13:15:23;20.60;99.90
20512;DHT22;10414;52.074;5.126;2023-07-31T13:17:51;20.40;99.90
20512;DHT22;10414;52.074;5.126;2023-07-31T13:20:18;20.20;99.90
20512;DHT22;10414;52.074;5.126;2023-07-31T13:22:45;20.30;99.90
20512;DHT22;10414;52.074;5.126;2023-07-31T13:25:12;20.40;99.90
20512;DHT22;10414;52.074;5.126;2023-07-31T13:27:39;20.40;99.90
20512;DHT22;10414;52.074;5.126;2023-07-31T13:30:07;20.10;99.90
20512;DHT22;10414;52.074;5.126;2023-07-31T13:32:34;20.20;99.90
20512;DHT22;10414;52.074;5.126;2023-07-31T13:35:06;20.30;99.90
20512;DHT22;10414;52.074;5.126;2023-07-31T13:37:32;20.20;99.90
20512;DHT22;10414;52.074;5.126;2023-07-31T13:39:59;20.10;99.90
20512;DHT22;10414;52.074;5.126;2023-07-31T13:42:30;20.30;99.90
20512;DHT22;10414;52.074;5.126;2023-07-31T13:44:57;20.20;99.90
20512;DHT22;10414;52.074;5.126;2023-07-31T13:47:24;20.30;99.90
20512;DHT22;10414;52.074;5.126;2023-07-31T13:49:53;20.20;99.90
20512;DHT22;10414;52.074;5.126;2023-07-31T13:52:21;19.90;99.90
20512;DHT22;10414;52.074;5.126;2023-07-31T13:54:48;19.90;99.90
20512;DHT22;10414;52.074;5.126;2023-07-31T13:57:15;19.80;99.90
20512;DHT22;10414;52.074;5.126;2023-07-31T13:59:42;19.80;99.90
20512;DHT22;10414;52.074;5.126;2023-07-31T14:02:10;19.70;99.90
20512;DHT22;10414;52.074;5.126;2023-07-31T14:04:37;19.80;99.90
20512;DHT22;10414;52.074;5.126;2023-07-31T14:07:04;19.70;99.90
20512;DHT22;10414;52.074;5.126;2023-07-31T14:09:32;19.60;99.90
20512;DHT22;10414;52.074;5.126;2023-07-31T14:12:00;19.70;99.90
20512;DHT22;10414;52.074;5.126;2023-07-31T14:14:28;19.70;99.90
20512;DHT22;10414;52.074;5.126;2023-07-31T14:16:56;19.70;99.90
20512;DHT22;10414;52.074;5.126;2023-07-31T14:19:25;19.90;99.90
20512;DHT22;10414;52.074;5.126;2023-07-31T14:21:54;20.20;99.90
20512;DHT22;10414;52.074;5.126;2023-07-31T14:24:21;20.20;99.90
20512;DHT22;10414;52.074;5.126;2023-07-31T14:26:49;20.10;99.90
20512;DHT22;10414;52.074;5.126;2023-07-31T14:29:16;20.00;99.90
20512;DHT22;10414;52.074;5.126;2023-07-31T14:31:43;19.70;99.90
20512;DHT22;10414;52.074;5.126;2023-07-31T14:34:13;19.60;99.90
20512;DHT22;10414;52.074;5.126;2023-07-31T14:36:39;19.60;99.90
20512;DHT22;10414;52.074;5.126;2023-07-31T14:39:06;19.50;99.90
20512;DHT22;10414;52.074;5.126;2023-07-31T14:41:33;19.50;99.90
20512;DHT22;10414;52.074;5.126;2023-07-31T14:44:03;19.50;99.90
20512;DHT22;10414;52.074;5.126;2023-07-31T14:46:30;19.50;99.90
20512;DHT22;10414;52.074;5.126;2023-07-31T14:48:56;19.50;99.90
20512;DHT22;10414;52.074;5.126;2023-07-31T14:51:24;19.40;99.90
20512;DHT22;10414;52.074;5.126;2023-07-31T14:53:51;19.30;99.90
20512;DHT22;10414;52.074;5.126;2023-07-31T14:56:18;19.30;99.90
20512;DHT22;10414;52.074;5.126;2023-07-31T14:58:48;19.30;99.90
20512;DHT22;10414;52.074;5.126;2023-07-31T15:01:16;19.30;99.90
20512;DHT22;10414;52.074;5.126;2023-07-31T15:03:43;19.30;99.90
20512;DHT22;10414;52.074;5.126;2023-07-31T15:06:10;19.20;99.90
20512;DHT22;10414;52.074;5.126;2023-07-31T15:08:39;19.30;99.90
20512;DHT22;10414;52.074;5.126;2023-07-31T15:11:09;19.30;99.90
20512;DHT22;10414;52.074;5.126;2023-07-31T15:13:36;19.20;99.90
20512;DHT22;10414;52.074;5.126;2023-07-31T15:16:03;19.20;99.90
20512;DHT22;10414;52.074;5.126;2023-07-31T15:18:32;19.20;99.90
20512;DHT22;10414;52.074;5.126;2023-07-31T15:21:03;19.20;99.90
20512;DHT22;10414;52.074;5.126;2023-07-31T15:23:32;19.10;99.90
20512;DHT22;10414;52.074;5.126;2023-07-31T15:25:59;19.10;99.90
20512;DHT22;10414;52.074;5.126;2023-07-31T15:28:27;19.10;99.90
20512;DHT22;10414;52.074;5.126;2023-07-31T15:30:54;19.00;99.90
20512;DHT22;10414;52.074;5.126;2023-07-31T15:33:20;19.00;99.90
20512;DHT22;10414;52.074;5.126;2023-07-31T15:35:51;19.00;99.90